Time;durP1;ratioP1;P1;durP2;ratioP2;P2;SDS_P1;SDS_P2;PMS_P1;PMS_P2;Temp;Humidity;BMP_temperature;BMP_pressure;BME280_temperature;BME280_humidity;BME280_pressure;Samples;Min_cycle;Max_cycle;Signal;HPM_P1;HPM_P2
2021/03/22 00:00:00;;;;;;;22.33;9.40;;;;;;;3.24;100.00;96428.03;5037363;28;20262;-72
2021/03/22 00:02:27;;;;;;;34.73;10.30;;;;;;;3.18;100.00;96426.78;5037767;28;20246;-72
2021/03/22 00:04:53;;;;;;;31.63;10.43;;;;;;;3.17;100.00;96439.88;5036808;28;20264;-71
2021/03/22 00:07:19;;;;;;;25.23;9.03;;;;;;;3.16;100.00;96438.25;5036258;28;20197;-71
2021/03/22 00:09:45;;;;;;;25.57;8.73;;;;;;;3.18;100.00;96436.34;5037094;28;20213;-72
2021/03/22 00:12:12;;;;;;;33.20;8.73;;;;;;;3.17;100.00;96434.69;5036899;28;20672;-72
2021/03/22 00:14:38;;;;;;;20.60;7.50;;;;;;;3.19;100.00;96424.97;5036656;28;20201;-71
2021/03/22 00:17:05;;;;;;;30.47;9.40;;;;;;;3.13;100.00;96428.09;5036433;28;20212;-70
2021/03/22 00:19:32;;;;;;;28.20;9.40;;;;;;;3.11;100.00;96419.59;5036640;28;20204;-72
2021/03/22 00:21:58;;;;;;;27.17;9.40;;;;;;;3.03;100.00;96416.81;5036528;28;20211;-71
2021/03/22 00:24:24;;;;;;;24.43;8.23;;;;;;;3.04;100.00;96418.44;5036801;28;20232;-71
2021/03/22 00:26:50;;;;;;;34.00;9.27;;;;;;;2.96;100.00;96415.66;5035912;28;20262;-70
2021/03/22 00:29:16;;;;;;;23.13;9.10;;;;;;;3.03;100.00;96422.00;5036478;28;20208;-71
2021/03/22 00:31:42;;;;;;;27.33;8.97;;;;;;;3.05;100.00;96422.69;5037034;28;20205;-72
2021/03/22 00:34:08;;;;;;;31.40;9.13;;;;;;;3.08;100.00;96418.06;5036551;28;20646;-72
2021/03/22 00:36:35;;;;;;;28.83;8.50;;;;;;;3.06;100.00;96426.97;5035744;28;20223;-72
2021/03/22 00:39:02;;;;;;;28.10;8.73;;;;;;;3.01;100.00;96421.31;5035878;28;20259;-72
2021/03/22 00:41:28;;;;;;;30.47;8.63;;;;;;;3.03;100.00;96414.22;5036806;28;20258;-72
2021/03/22 00:43:54;;;;;;;29.87;8.70;;;;;;;3.05;100.00;96414.88;5036652;28;20209;-72
2021/03/22 00:46:20;;;;;;;30.57;9.13;;;;;;;3.06;100.00;96417.34;5035431;28;20221;-71
2021/03/22 00:48:46;;;;;;;24.93;8.53;;;;;;;3.09;100.00;96409.31;5036432;28;20209;-72
2021/03/22 00:51:12;;;;;;;29.73;9.10;;;;;;;3.03;100.00;96411.59;5035983;28;20679;-70
2021/03/22 00:53:39;;;;;;;25.73;8.50;;;;;;;3.09;100.00;96411.06;5036284;28;20201;-70
2021/03/22 00:56:05;;;;;;;27.67;8.07;;;;;;;3.05;100.00;96409.69;5035556;28;20587;-71
2021/03/22 00:58:31;;;;;;;34.27;8.73;;;;;;;3.01;100.00;96413.50;5036763;28;20205;-70
2021/03/22 01:01:00;;;;;;;31.53;9.37;;;;;;;3.03;100.00;96411.59;5040181;28;20209;-72
2021/03/22 01:03:28;;;;;;;25.57;8.53;;;;;;;3.02;100.00;96418.56;5040736;28;20204;-72
2021/03/22 01:05:54;;;;;;;25.97;9.30;;;;;;;3.00;100.00;96405.81;5039294;28;20279;-72
2021/03/22 01:08:23;;;;;;;28.13;8.53;;;;;;;2.96;100.00;96415.66;5039595;28;20197;-69
2021/03/22 01:10:54;;;;;;;30.57;8.73;;;;;;;2.95;100.00;96411.38;5039997;28;20220;-70
2021/03/22 01:13:23;;;;;;;28.87;9.10;;;;;;;2.94;100.00;96407.16;5040680;28;20209;-70
2021/03/22 01:15:50;;;;;;;33.77;10.07;;;;;;;2.94;100.00;96412.38;5039104;28;20335;-70
2021/03/22 01:18:19;;;;;;;31.33;10.00;;;;;;;2.93;100.00;96404.66;5039927;28;20582;-72
2021/03/22 01:20:47;;;;;;;24.17;9.40;;;;;;;2.88;100.00;96406.81;5040598;28;20259;-72
2021/03/22 01:23:14;;;;;;;31.30;9.93;;;;;;;2.90;100.00;96410.13;5039662;28;20686;-71
2021/03/22 01:25:40;;;;;;;28.97;9.00;;;;;;;2.88;100.00;96402.47;5038879;28;20232;-72
2021/03/22 01:28:09;;;;;;;27.67;9.80;;;;;;;2.88;100.00;96402.47;5040278;28;20624;-72
2021/03/22 01:30:40;;;;;;;36.80;9.50;;;;;;;2.83;100.00;96398.59;5040078;28;20211;-72
2021/03/22 01:33:09;;;;;;;29.30;9.73;;;;;;;2.87;100.00;96392.19;5039669;28;20296;-72
2021/03/22 01:35:35;;;;;;;40.90;9.90;;;;;;;2.90;100.00;96395.31;5039282;28;20217;-72
2021/03/22 01:38:01;;;;;;;30.60;9.47;;;;;;;2.94;100.00;96391.53;5039662;28;20205;-72
2021/03/22 01:40:44;;;;;;;29.27;9.37;;;;;;;2.94;100.00;96391.53;5039564;28;20633;-73
2021/03/22 01:43:22;;;;;;;27.70;8.73;;;;;;;2.92;100.00;96382.22;5039634;28;20321;-70
2021/03/22 01:45:48;;;;;;;26.17;8.83;;;;;;;2.87;100.00;96381.78;5038725;28;20282;-70
2021/03/22 01:48:14;;;;;;;25.33;8.80;;;;;;;2.85;100.00;96379.28;5039424;28;20219;-72
2021/03/22 01:50:40;;;;;;;32.77;9.83;;;;;;;2.85;100.00;96371.50;5039664;28;20219;-71
2021/03/22 01:53:06;;;;;;;29.40;9.80;;;;;;;2.74;100.00;96374.16;5039423;28;20205;-70
2021/03/22 01:55:32;;;;;;;28.57;9.50;;;;;;;2.71;100.00;96381.38;5038431;28;20221;-72
2021/03/22 01:57:58;;;;;;;37.57;9.63;;;;;;;2.72;100.00;96380.41;5039222;28;20649;-72
2021/03/22 02:00:28;;;;;;;32.37;10.13;;;;;;;2.67;100.00;96373.00;5038953;28;20216;-72
2021/03/22 02:02:59;;;;;;;30.73;9.53;;;;;;;2.65;100.00;96372.31;5039262;28;20245;-72
2021/03/22 02:05:28;;;;;;;28.53;8.83;;;;;;;2.68;100.00;96372.03;5038182;28;20232;-72
2021/03/22 02:08:00;;;;;;;26.90;8.70;;;;;;;2.70;100.00;96380.56;5038893;28;20219;-72
2021/03/22 02:10:26;;;;;;;27.73;8.87;;;;;;;2.69;100.00;96371.09;5037952;28;20679;-72
2021/03/22 02:12:52;;;;;;;20.37;8.20;;;;;;;2.68;100.00;96374.63;5038619;28;20667;-72
2021/03/22 02:15:19;;;;;;;27.33;8.57;;;;;;;2.67;100.00;96378.22;5038779;28;20692;-71
2021/03/22 02:18:05;;;;;;;33.20;8.67;;;;;;;2.75;100.00;96385.38;5039133;28;20205;-71
2021/03/22 02:21:08;;;;;;;28.03;8.40;;;;;;;2.67;100.00;96386.03;5038133;28;20996;-72
2021/03/22 02:24:08;;;;;;;29.17;8.80;;;;;;;2.72;100.00;96380.41;5039706;28;20208;-72
2021/03/22 02:27:24;;;;;;;26.87;7.40;;;;;;;2.72;100.00;96383.03;5037931;28;20217;-72
2021/03/22 02:30:07;;;;;;;25.77;8.43;;;;;;;2.73;100.00;96392.50;5038180;28;20702;-72
2021/03/22 02:32:55;;;;;;;28.40;8.07;;;;;;;2.72;100.00;96394.25;5038716;28;20209;-72
2021/03/22 02:35:28;;;;;;;40.87;8.80;;;;;;;2.76;100.00;96390.47;5037542;28;20221;-71
2021/03/22 02:37:59;;;;;;;27.23;7.63;;;;;;;2.73;100.00;96387.28;5038444;28;20262;-71
2021/03/22 02:40:33;;;;;;;31.40;8.10;;;;;;;2.73;100.00;96389.88;5038940;28;20197;-71
2021/03/22 02:43:01;;;;;;;24.17;7.27;;;;;;;2.73;100.00;96393.31;5038424;28;20271;-72
2021/03/22 02:45:30;;;;;;;29.93;8.23;;;;;;;2.74;100.00;96388.94;5037934;28;20229;-72
2021/03/22 02:47:58;;;;;;;34.47;7.53;;;;;;;2.70;100.00;96390.97;5038388;28;20745;-72
2021/03/22 02:50:28;;;;;;;24.13;7.33;;;;;;;2.67;100.00;96392.97;5038287;28;20194;-72
2021/03/22 02:53:20;;;;;;;37.90;7.47;;;;;;;2.68;100.00;96400.66;5038519;28;20989;-71
2021/03/22 02:56:06;;;;;;;24.27;6.83;;;;;;;2.65;100.00;96390.50;5037731;28;20769;-70
2021/03/22 02:58:40;;;;;;;25.07;7.67;;;;;;;2.70;100.00;96398.75;5037965;28;20244;-71
2021/03/22 03:01:12;;;;;;;20.60;6.93;;;;;;;2.63;100.00;96395.00;5038097;28;20205;-72
2021/03/22 03:03:39;;;;;;;26.63;6.97;;;;;;;2.62;100.00;96393.38;5038605;28;20205;-72
2021/03/22 03:06:07;;;;;;;37.90;7.00;;;;;;;2.60;100.00;96413.47;5037065;28;20228;-72
2021/03/22 03:08:36;;;;;;;28.73;7.13;;;;;;;2.56;100.00;96403.47;5038020;28;20220;-71
2021/03/22 03:11:03;;;;;;;32.90;7.53;;;;;;;2.61;100.00;96402.13;5037880;28;20907;-71
2021/03/22 03:13:29;;;;;;;27.90;7.37;;;;;;;2.56;100.00;96409.47;5037434;28;20198;-71
2021/03/22 03:15:55;;;;;;;28.57;6.87;;;;;;;2.58;100.00;96411.94;5037026;28;20225;-72
2021/03/22 03:18:21;;;;;;;29.73;7.17;;;;;;;2.54;100.00;96419.16;5038094;28;20258;-72
2021/03/22 03:20:48;;;;;;;32.93;6.90;;;;;;;2.60;100.00;96420.47;5037195;28;20209;-71
2021/03/22 03:23:15;;;;;;;30.80;7.30;;;;;;;2.56;100.00;96427.69;5037457;28;20190;-72
2021/03/22 03:25:41;;;;;;;34.63;6.67;;;;;;;2.54;100.00;96434.75;5036883;28;20232;-71
2021/03/22 03:28:08;;;;;;;35.57;6.50;;;;;;;2.48;100.00;96434.44;5037818;28;20205;-71
2021/03/22 03:30:37;;;;;;;29.67;6.97;;;;;;;2.51;100.00;96442.81;5037901;28;20209;-72
2021/03/22 03:33:04;;;;;;;22.83;5.83;;;;;;;2.52;100.00;96431.47;5038062;28;20212;-72
2021/03/22 03:35:34;;;;;;;28.47;4.93;;;;;;;2.53;100.00;96440.09;5035098;28;20217;-72
2021/03/22 03:38:01;;;;;;;19.53;4.67;;;;;;;2.40;100.00;96441.22;5037452;28;20210;-72
2021/03/22 03:40:30;;;;;;;22.70;4.73;;;;;;;2.43;100.00;96444.38;5037200;28;20204;-74
2021/03/22 03:42:57;;;;;;;22.23;4.77;;;;;;;2.41;100.00;96436.69;5037917;28;20213;-72
2021/03/22 03:45:24;;;;;;;28.53;4.90;;;;;;;2.46;100.00;96444.16;5037119;28;20240;-72
2021/03/22 03:47:50;;;;;;;25.07;4.77;;;;;;;2.38;100.00;96443.09;5036553;28;20546;-71
2021/03/22 03:50:20;;;;;;;25.00;5.33;;;;;;;2.40;100.00;96436.84;5036968;28;20684;-72
2021/03/22 03:52:46;;;;;;;20.60;4.70;;;;;;;2.45;100.00;96435.50;5037674;28;20204;-71
2021/03/22 03:55:14;;;;;;;23.17;3.83;;;;;;;2.49;100.00;96433.50;5036544;28;20221;-72
2021/03/22 03:57:45;;;;;;;19.30;4.37;;;;;;;2.50;100.00;96435.97;5036806;28;20212;-72
2021/03/22 04:00:13;;;;;;;21.87;4.53;;;;;;;2.44;100.00;96443.44;5037156;28;20197;-72
2021/03/22 04:02:41;;;;;;;20.37;5.10;;;;;;;2.47;100.00;96440.59;5036928;28;20348;-72
2021/03/22 04:05:08;;;;;;;23.53;4.27;;;;;;;2.43;100.00;96442.63;5035682;28;20243;-70
2021/03/22 04:07:34;;;;;;;29.87;4.90;;;;;;;2.43;100.00;96442.63;5037330;28;20553;-71
2021/03/22 04:10:00;;;;;;;24.30;5.70;;;;;;;2.37;100.00;96446.66;5036526;28;20209;-71
2021/03/22 04:12:26;;;;;;;35.33;5.10;;;;;;;2.36;100.00;96445.84;5036990;28;20215;-71
2021/03/22 04:14:53;;;;;;;28.97;5.30;;;;;;;2.37;100.00;96447.50;5036953;28;20221;-71
2021/03/22 04:17:19;;;;;;;22.20;4.23;;;;;;;2.39;100.00;96445.56;5036110;28;20208;-70
2021/03/22 04:19:45;;;;;;;21.13;4.70;;;;;;;2.39;100.00;96449.97;5036700;28;20209;-72
2021/03/22 04:22:11;;;;;;;25.43;4.37;;;;;;;2.32;100.00;96459.19;5036659;28;20545;-72
2021/03/22 04:24:37;;;;;;;23.43;4.57;;;;;;;2.30;100.00;96456.72;5036687;28;20703;-72
2021/03/22 04:27:04;;;;;;;22.40;4.17;;;;;;;2.33;100.00;96456.50;5035444;28;20213;-71
2021/03/22 04:29:30;;;;;;;29.70;5.33;;;;;;;2.37;100.00;96459.66;5036535;28;20205;-71
2021/03/22 04:31:57;;;;;;;28.90;5.33;;;;;;;2.34;100.00;96467.69;5036601;28;20204;-72
2021/03/22 04:34:23;;;;;;;24.20;4.77;;;;;;;2.33;100.00;96463.44;5035472;28;20266;-71
2021/03/22 04:36:49;;;;;;;19.50;3.73;;;;;;;2.35;100.00;96464.16;5036223;28;20208;-70
2021/03/22 04:39:15;;;;;;;28.93;4.33;;;;;;;2.40;100.00;96456.81;5036632;28;20201;-71
2021/03/22 04:41:41;;;;;;;26.97;4.27;;;;;;;2.45;100.00;96458.91;5036247;28;20204;-70
2021/03/22 04:44:08;;;;;;;20.57;4.13;;;;;;;2.38;100.00;96443.09;5036661;28;20212;-71
2021/03/22 04:46:34;;;;;;;36.07;4.93;;;;;;;2.34;100.00;96446.91;5034953;28;20796;-72
2021/03/22 04:49:02;;;;;;;24.07;4.30;;;;;;;2.34;100.00;96450.31;5036405;28;20227;-71
2021/03/22 04:51:29;;;;;;;24.87;4.40;;;;;;;2.37;100.00;96462.25;5036716;28;20204;-71
2021/03/22 04:53:55;;;;;;;13.17;3.63;;;;;;;2.37;100.00;96467.44;5037235;28;20204;-71
2021/03/22 04:56:22;;;;;;;26.27;4.27;;;;;;;2.36;100.00;96458.84;5035338;28;20271;-70
2021/03/22 04:58:48;;;;;;;28.70;4.20;;;;;;;2.40;100.00;96464.63;5036368;28;20253;-71
2021/03/22 05:01:14;;;;;;;28.83;4.63;;;;;;;2.41;100.00;96459.28;5036293;28;20205;-71
2021/03/22 05:03:40;;;;;;;20.10;4.07;;;;;;;2.40;99.33;96474.03;5036248;28;21100;-70
2021/03/22 05:06:08;;;;;;;28.83;3.90;;;;;;;2.36;100.00;96473.63;5035305;28;20228;-72
2021/03/22 05:08:34;;;;;;;17.93;3.40;;;;;;;2.40;99.32;96468.03;5036187;28;20201;-71
2021/03/22 05:11:01;;;;;;;23.73;4.50;;;;;;;2.37;100.00;96472.66;5036235;28;20210;-70
2021/03/22 05:13:28;;;;;;;23.00;4.37;;;;;;;2.39;100.00;96476.78;5036148;28;20205;-72
2021/03/22 05:15:55;;;;;;;22.80;4.97;;;;;;;2.38;100.00;96472.53;5035139;28;20236;-72
2021/03/22 05:18:22;;;;;;;29.97;4.93;;;;;;;2.37;100.00;96468.28;5036497;28;20201;-71
2021/03/22 05:20:50;;;;;;;26.87;4.53;;;;;;;2.34;100.00;96465.09;5036280;28;20282;-71
2021/03/22 05:23:19;;;;;;;25.03;4.23;;;;;;;2.37;100.00;96468.28;5035671;28;20202;-71
2021/03/22 05:25:46;;;;;;;32.73;4.70;;;;;;;2.30;100.00;96467.09;5035592;28;20225;-72
2021/03/22 05:28:12;;;;;;;24.40;4.33;;;;;;;2.28;100.00;96471.63;5036262;28;20193;-72
2021/03/22 05:30:39;;;;;;;22.13;4.47;;;;;;;2.28;100.00;96481.19;5036103;28;20201;-71
2021/03/22 05:33:09;;;;;;;25.53;4.83;;;;;;;2.32;100.00;96469.59;5036144;28;20240;-72
2021/03/22 05:35:36;;;;;;;23.37;5.37;;;;;;;2.29;100.00;96468.09;5035633;28;20217;-72
2021/03/22 05:38:03;;;;;;;24.33;4.87;;;;;;;2.25;100.00;96477.03;5036155;28;20205;-72
2021/03/22 05:40:35;;;;;;;22.20;4.63;;;;;;;2.29;100.00;96480.22;5036275;28;20202;-72
2021/03/22 05:43:21;;;;;;;27.83;4.30;;;;;;;2.35;100.00;96480.56;5036056;28;20212;-72
2021/03/22 05:45:58;;;;;;;24.07;4.47;;;;;;;2.28;100.00;96484.63;5036965;28;20233;-73
2021/03/22 05:48:56;;;;;;;21.73;4.80;;;;;;;2.32;100.00;96478.22;5039650;28;20201;-73
2021/03/22 05:51:32;;;;;;;24.10;4.67;;;;;;;2.32;100.00;96474.78;4999039;28;20201;-71
2021/03/22 05:54:05;;;;;;;18.40;5.00;;;;;;;2.31;100.00;96480.94;5039634;28;20687;-72
2021/03/22 05:56:40;;;;;;;26.40;5.13;;;;;;;2.35;100.00;96485.78;5038610;28;20275;-73
2021/03/22 05:59:22;;;;;;;27.87;5.50;;;;;;;2.36;100.00;96482.22;5039668;28;20208;-73
2021/03/22 06:01:53;;;;;;;23.83;5.30;;;;;;;2.39;100.00;96479.38;5039483;28;20573;-73
2021/03/22 06:04:25;;;;;;;20.03;4.50;;;;;;;2.44;100.00;96485.88;5039468;28;20198;-71
2021/03/22 06:06:52;;;;;;;23.27;4.77;;;;;;;2.44;100.00;96496.28;5037886;28;20240;-73
2021/03/22 06:09:33;;;;;;;23.93;5.33;;;;;;;2.48;100.00;96489.88;5038792;28;20205;-72
2021/03/22 06:12:06;;;;;;;28.50;5.63;;;;;;;2.52;100.00;96499.09;5039564;28;20220;-73
2021/03/22 06:14:47;;;;;;;26.33;5.40;;;;;;;2.41;100.00;96501.72;5039446;28;20224;-72
2021/03/22 06:17:18;;;;;;;33.27;5.23;;;;;;;2.45;100.00;96502.31;5038088;28;20200;-73
2021/03/22 06:19:50;;;;;;;27.50;5.07;;;;;;;2.49;100.00;96499.31;5038885;28;20205;-72
2021/03/22 06:22:23;;;;;;;27.93;4.57;;;;;;;2.56;100.00;96508.31;5038561;28;20205;-73
2021/03/22 06:24:50;;;;;;;22.93;4.40;;;;;;;2.63;100.00;96501.66;5038969;28;20229;-72
2021/03/22 06:27:17;;;;;;;28.60;4.83;;;;;;;2.68;100.00;96511.69;5038526;28;20193;-73
2021/03/22 06:29:44;;;;;;;20.93;4.37;;;;;;;2.72;100.00;96526.13;5039218;28;20205;-72
2021/03/22 06:32:18;;;;;;;16.77;4.30;;;;;;;2.73;100.00;96518.19;5039054;28;20205;-72
2021/03/22 06:34:51;;;;;;;21.07;4.43;;;;;;;2.79;100.00;96527.25;5038813;28;20225;-73
2021/03/22 06:37:20;;;;;;;21.47;5.47;;;;;;;2.78;100.00;96521.25;5038308;28;20201;-72
2021/03/22 06:39:48;;;;;;;25.37;4.60;;;;;;;2.81;100.00;96531.41;5038488;28;20205;-74
2021/03/22 06:42:21;;;;;;;15.03;3.63;;;;;;;2.82;100.00;96542.66;5038698;28;20208;-73
2021/03/22 06:44:48;;;;;;;18.10;3.33;;;;;;;2.76;98.96;96543.97;5038496;28;20283;-73
2021/03/22 06:47:30;;;;;;;26.17;4.57;;;;;;;2.82;99.93;96543.47;5037682;28;20853;-71
2021/03/22 06:50:13;;;;;;;29.07;4.33;;;;;;;2.84;99.03;96528.56;5038868;28;20205;-71
2021/03/22 06:52:42;;;;;;;30.27;4.73;;;;;;;2.89;99.61;96528.19;5038412;28;20860;-73
2021/03/22 06:55:26;;;;;;;18.33;4.00;;;;;;;2.89;98.64;96534.22;5037738;28;20231;-73
2021/03/22 06:57:53;;;;;;;27.73;4.00;;;;;;;2.89;99.23;96523.81;5037527;28;21103;-71
2021/03/22 07:00:22;;;;;;;31.33;4.70;;;;;;;2.99;98.00;96529.09;5038501;28;20212;-73
2021/03/22 07:02:49;;;;;;;24.83;4.90;;;;;;;3.07;98.25;96533.56;5038104;28;20205;-72
2021/03/22 07:05:40;;;;;;;28.37;4.87;;;;;;;3.14;99.10;96546.91;5037279;28;20688;-74
2021/03/22 07:08:09;;;;;;;17.10;4.00;;;;;;;3.16;97.21;96552.81;5038155;28;20573;-73
2021/03/22 07:10:39;;;;;;;20.20;4.53;;;;;;;3.17;95.22;96551.84;5038538;28;20245;-72
2021/03/22 07:13:23;;;;;;;21.60;4.43;;;;;;;3.15;96.73;96557.19;5038405;28;20421;-73
2021/03/22 07:15:51;;;;;;;19.60;4.10;;;;;;;3.17;99.45;96549.25;5036953;28;20225;-73
2021/03/22 07:18:24;;;;;;;26.80;4.40;;;;;;;3.29;97.52;96556.06;5038095;28;20197;-72
2021/03/22 07:21:12;;;;;;;30.60;5.17;;;;;;;3.36;96.00;96559.81;5038513;28;20198;-72
2021/03/22 07:23:48;;;;;;;24.87;3.83;;;;;;;3.40;95.49;96556.00;5037533;28;20216;-73
2021/03/22 07:26:22;;;;;;;16.33;3.30;;;;;;;3.48;95.24;96559.63;5036649;28;20221;-72
2021/03/22 07:29:00;;;;;;;22.50;3.90;;;;;;;3.43;95.68;96567.00;5037729;28;20207;-73
2021/03/22 07:31:38;;;;;;;24.37;4.47;;;;;;;3.45;93.60;96569.47;5037622;28;20201;-71
2021/03/22 07:34:20;;;;;;;22.83;3.73;;;;;;;3.43;94.51;96571.41;5037855;28;20211;-73
2021/03/22 07:36:54;;;;;;;20.73;4.00;;;;;;;3.51;95.08;96567.19;5036822;28;20221;-72
2021/03/22 07:39:33;;;;;;;20.87;3.63;;;;;;;3.50;92.59;96565.56;5037248;28;20201;-73
2021/03/22 07:42:11;;;;;;;17.90;4.47;;;;;;;3.46;91.62;96563.31;5037954;28;20213;-72
2021/03/22 07:45:02;;;;;;;20.17;4.40;;;;;;;3.57;93.69;96561.47;5037622;28;20209;-73
2021/03/22 07:47:54;;;;;;;21.90;3.50;;;;;;;3.67;94.12;96564.97;5037618;28;20201;-73
2021/03/22 07:50:25;;;;;;;22.87;3.60;;;;;;;3.52;91.37;96576.66;5038095;28;20205;-71
2021/03/22 07:52:55;;;;;;;18.67;4.07;;;;;;;3.53;92.01;96575.72;5037345;28;20205;-73
2021/03/22 07:55:36;;;;;;;24.50;3.97;;;;;;;3.48;94.48;96572.66;5036077;28;20217;-73
2021/03/22 07:58:08;;;;;;;18.57;3.57;;;;;;;3.67;93.53;96576.22;5037256;28;20744;-74
2021/03/22 08:00:44;;;;;;;28.40;3.93;;;;;;;3.70;91.04;96578.59;5038083;28;20233;-73
2021/03/22 08:03:24;;;;;;;19.33;3.33;;;;;;;3.62;90.66;96567.94;5037029;28;20196;-72
2021/03/22 08:06:07;;;;;;;19.83;3.60;;;;;;;3.72;91.30;96575.84;5036144;28;20232;-73
2021/03/22 08:08:42;;;;;;;17.67;4.30;;;;;;;3.73;93.45;96569.69;5035758;28;20239;-71
2021/03/22 08:11:14;;;;;;;18.07;3.47;;;;;;;3.73;90.95;96578.31;5036363;28;20211;-73
2021/03/22 08:13:49;;;;;;;28.30;3.90;;;;;;;3.78;89.76;96576.16;5035539;28;20201;-73
2021/03/22 08:16:45;;;;;;;24.00;3.70;;;;;;;3.84;90.34;96587.84;5035831;28;20216;-71
2021/03/22 08:19:20;;;;;;;18.90;3.47;;;;;;;3.74;90.29;96595.63;5034599;28;20359;-72
2021/03/22 08:21:54;;;;;;;20.57;4.10;;;;;;;3.57;91.62;96604.97;5036427;28;20211;-72
2021/03/22 08:24:28;;;;;;;14.20;3.40;;;;;;;3.61;89.70;96607.16;5036535;28;20211;-73
2021/03/22 08:26:59;;;;;;;24.67;3.83;;;;;;;3.60;89.97;96612.50;5035148;28;20282;-71
2021/03/22 08:29:29;;;;;;;19.07;3.47;;;;;;;3.66;91.42;96611.03;5035960;28;20205;-72
2021/03/22 08:32:05;;;;;;;25.17;3.27;;;;;;;3.58;89.03;96617.00;5036135;28;20212;-73
2021/03/22 08:34:43;;;;;;;21.00;2.87;;;;;;;3.49;88.43;96622.97;5036506;28;20200;-71
2021/03/22 08:37:14;;;;;;;17.73;3.50;;;;;;;3.55;90.43;96615.47;5035372;28;20216;-72
2021/03/22 08:39:47;;;;;;;19.37;3.33;;;;;;;3.58;90.38;96615.25;5035920;28;20205;-73
2021/03/22 08:42:19;;;;;;;21.23;3.40;;;;;;;3.41;87.84;96623.63;5036209;28;20251;-73
2021/03/22 08:44:54;;;;;;;12.63;2.80;;;;;;;3.46;87.57;96628.44;5035155;28;20225;-72
2021/03/22 08:47:38;;;;;;;18.87;3.60;;;;;;;3.58;90.05;96619.59;5035527;28;20201;-73
2021/03/22 08:50:07;;;;;;;16.93;3.70;;;;;;;3.74;90.07;96624.28;5035910;28;20216;-72
2021/03/22 08:52:36;;;;;;;11.40;2.77;;;;;;;3.70;87.59;96625.50;5035579;28;20217;-70
2021/03/22 08:55:07;;;;;;;15.37;2.77;;;;;;;3.54;87.15;96633.84;5034821;28;20225;-71
2021/03/22 08:57:41;;;;;;;18.53;2.80;;;;;;;3.53;86.89;96634.81;5036111;28;20207;-74
2021/03/22 09:00:27;;;;;;;5.23;1.70;;;;;;;3.60;85.81;96641.16;5036079;28;20201;-71
2021/03/22 09:02:56;;;;;;;11.13;2.27;;;;;;;3.63;87.36;96647.78;5032853;28;20208;-73
2021/03/22 09:05:24;;;;;;;13.10;2.33;;;;;;;3.69;85.49;96652.50;5035730;28;20225;-73
2021/03/22 09:07:51;;;;;;;17.23;3.07;;;;;;;3.54;85.13;96662.50;5035375;28;20251;-72
2021/03/22 09:10:36;;;;;;;10.90;2.80;;;;;;;3.67;85.64;96654.38;5035431;28;20208;-71
2021/03/22 09:13:27;;;;;;;13.57;3.23;;;;;;;3.64;87.89;96651.22;5036165;28;20209;-73
2021/03/22 09:16:30;;;;;;;19.40;3.13;;;;;;;3.73;85.86;96656.50;5031659;28;20649;-71
2021/03/22 09:19:29;;;;;;;19.47;3.77;;;;;;;3.77;86.57;96654.47;5034861;28;20585;-73
2021/03/22 09:22:33;;;;;;;13.97;3.10;;;;;;;3.68;85.15;96668.25;5040154;28;20208;-72
2021/03/22 09:24:59;;;;;;;20.60;2.93;;;;;;;3.76;85.54;96664.06;5038446;28;20711;-72
2021/03/22 09:27:32;;;;;;;10.77;2.97;;;;;;;3.90;83.95;96666.38;5039328;28;20220;-72
2021/03/22 09:30:40;;;;;;;13.67;2.70;;;;;;;4.03;82.75;96661.78;5039350;28;20205;-73
2021/03/22 09:33:07;;;;;;;11.27;2.40;;;;;;;3.94;81.84;96666.94;5038807;28;20205;-72
2021/03/22 09:36:12;;;;;;;11.17;3.07;;;;;;;3.96;81.12;96660.66;5039035;28;20275;-73
2021/03/22 09:38:43;;;;;;;10.93;2.33;;;;;;;4.09;83.13;96663.88;5038647;28;20274;-72
2021/03/22 09:41:09;;;;;;;9.87;2.60;;;;;;;4.23;80.00;96663.56;5039079;28;20212;-73
2021/03/22 09:44:09;;;;;;;14.30;2.40;;;;;;;3.99;79.60;96663.00;5039202;28;20216;-73
2021/03/22 09:46:37;;;;;;;7.13;2.57;;;;;;;4.08;80.91;96664.84;5037870;28;20225;-73
2021/03/22 09:49:23;;;;;;;12.60;2.10;;;;;;;4.07;79.33;96663.19;5039289;28;20214;-74
2021/03/22 09:51:52;;;;;;;20.23;3.07;;;;;;;4.07;79.76;96655.34;5038927;28;20208;-72
2021/03/22 09:54:31;;;;;;;14.17;2.73;;;;;;;4.01;84.40;96661.09;5039330;28;20250;-73
2021/03/22 09:57:23;;;;;;;16.80;2.77;;;;;;;3.87;83.86;96658.81;5038437;28;20883;-73
2021/03/22 10:00:26;;;;;;;8.87;2.00;;;;;;;3.80;80.80;96659.44;5038907;28;20205;-73
2021/03/22 10:02:54;;;;;;;15.30;3.40;;;;;;;3.69;82.34;96668.13;5040041;28;20204;-72
2021/03/22 10:05:23;;;;;;;13.47;2.33;;;;;;;3.71;81.21;96663.59;5037440;28;20264;-73
2021/03/22 10:08:23;;;;;;;5.67;1.80;;;;;;;3.83;81.26;96667.84;5038831;28;20205;-73
2021/03/22 10:10:52;;;;;;;11.20;1.90;;;;;;;3.87;83.62;96665.78;5015961;28;20213;-72
2021/03/22 10:13:23;;;;;;;9.97;2.27;;;;;;;3.96;81.82;96668.47;5038210;28;20204;-71
2021/03/22 10:15:52;;;;;;;8.57;2.23;;;;;;;3.86;78.79;96653.72;5037508;28;20228;-72
2021/03/22 10:18:27;;;;;;;4.13;1.60;;;;;;;4.11;79.69;96667.22;5038984;28;20661;-73
2021/03/22 10:21:05;;;;;;;6.77;1.70;;;;;;;4.28;77.50;96661.41;5038920;28;20208;-72
2021/03/22 10:23:33;;;;;;;5.20;1.93;;;;;;;4.40;78.64;96671.66;5038652;28;20707;-73
2021/03/22 10:26:06;;;;;;;11.20;1.93;;;;;;;4.66;77.14;96672.00;5037746;28;20236;-73
2021/03/22 10:28:32;;;;;;;6.47;1.80;;;;;;;4.58;74.83;96671.84;5039209;28;20205;-73
2021/03/22 10:31:04;;;;;;;10.17;2.20;;;;;;;4.64;74.17;96674.75;5037515;28;20224;-74
2021/03/22 10:33:31;;;;;;;13.03;2.20;;;;;;;4.81;74.74;96668.91;5038682;28;20201;-74
2021/03/22 10:36:00;;;;;;;8.60;2.20;;;;;;;4.85;74.57;96668.53;5037535;28;20224;-73
2021/03/22 10:38:28;;;;;;;11.70;2.07;;;;;;;4.91;75.31;96668.03;5038569;28;20201;-74
2021/03/22 10:40:56;;;;;;;13.33;2.20;;;;;;;4.72;75.32;96666.28;5038283;28;20211;-72
2021/03/22 10:43:30;;;;;;;13.97;2.43;;;;;;;4.79;74.00;96670.03;5038565;28;20205;-74
2021/03/22 10:45:57;;;;;;;6.67;2.37;;;;;;;4.84;75.04;96659.03;5037407;28;20225;-74
2021/03/22 10:48:30;;;;;;;8.57;2.70;;;;;;;4.58;75.00;96657.03;5037895;28;20197;-72
2021/03/22 10:51:07;;;;;;;9.27;2.03;;;;;;;4.82;75.32;96663.59;5038415;28;20201;-74
2021/03/22 10:53:33;;;;;;;9.90;1.83;;;;;;;4.72;75.31;96667.09;5037948;28;20201;-73
2021/03/22 10:56:18;;;;;;;12.77;1.93;;;;;;;4.76;74.29;96660.69;5037202;28;20716;-73
2021/03/22 10:58:46;;;;;;;8.83;2.30;;;;;;;4.85;73.11;96658.09;5038433;28;20958;-73
2021/03/22 11:01:12;;;;;;;8.40;2.40;;;;;;;4.88;74.37;96657.81;5038270;28;20198;-73
2021/03/22 11:03:38;;;;;;;8.07;2.13;;;;;;;4.85;74.47;96659.88;5037411;28;20205;-73
2021/03/22 11:06:11;;;;;;;18.53;2.10;;;;;;;4.82;77.66;96660.97;5036711;28;20225;-72
2021/03/22 11:08:40;;;;;;;8.93;2.00;;;;;;;4.60;76.35;96659.50;5038088;28;20217;-74
2021/03/22 11:11:10;;;;;;;12.87;2.60;;;;;;;4.85;74.31;96662.50;5037240;28;20236;-72
2021/03/22 11:13:38;;;;;;;8.60;2.23;;;;;;;5.10;73.81;96656.78;5037531;28;20214;-73
2021/03/22 11:16:07;;;;;;;10.87;1.90;;;;;;;5.13;70.65;96665.19;5035704;28;20221;-71
2021/03/22 11:18:33;;;;;;;7.07;1.70;;;;;;;5.16;72.54;96664.91;5037661;28;20201;-71
2021/03/22 11:21:01;;;;;;;7.77;1.80;;;;;;;5.05;71.04;96665.03;5038105;28;20208;-73
2021/03/22 11:23:43;;;;;;;5.10;1.67;;;;;;;5.08;70.67;96670.00;5037178;28;20202;-73
2021/03/22 11:26:17;;;;;;;13.00;2.30;;;;;;;5.12;71.32;96665.34;5036408;28;20704;-73
2021/03/22 11:28:43;;;;;;;8.13;2.10;;;;;;;5.11;69.21;96677.53;5037497;28;20204;-73
2021/03/22 11:31:20;;;;;;;12.87;2.07;;;;;;;4.97;71.58;96680.53;5038209;28;20216;-73
2021/03/22 11:33:58;;;;;;;8.40;1.73;;;;;;;5.14;74.04;96674.69;5036465;28;20204;-73
2021/03/22 11:36:33;;;;;;;5.73;2.10;;;;;;;4.94;71.45;96679.97;5036267;28;20220;-73
2021/03/22 11:39:10;;;;;;;10.57;1.97;;;;;;;4.94;71.91;96679.97;5037280;28;20201;-72
2021/03/22 11:41:38;;;;;;;14.70;2.70;;;;;;;4.92;72.03;96680.09;5036920;28;20208;-73
2021/03/22 11:44:19;;;;;;;7.50;1.93;;;;;;;4.62;71.72;96681.06;5036936;28;20863;-72
2021/03/22 11:46:49;;;;;;;7.53;1.90;;;;;;;4.57;73.20;96683.25;5036095;28;20279;-73
2021/03/22 11:49:37;;;;;;;8.87;1.90;;;;;;;4.66;71.33;96682.47;5036964;28;20201;-72
2021/03/22 11:52:05;;;;;;;5.13;1.77;;;;;;;4.52;73.82;96677.56;5037116;28;20201;-73